createdAt,value
2017-12-30T00:00:53.918Z,2.97
2017-12-30T00:03:21.873Z,3.73
2017-12-30T00:05:49.324Z,3.07
2017-12-30T00:08:16.772Z,3.53
2017-12-30T00:10:44.616Z,3.37
2017-12-30T00:13:12.076Z,4.13
2017-12-30T00:15:39.538Z,3.57
2017-12-30T00:18:07.342Z,3.80
2017-12-30T00:20:34.813Z,3.57
2017-12-30T00:23:02.294Z,4.20
2017-12-30T00:25:29.984Z,3.77
2017-12-30T00:27:57.451Z,4.03
2017-12-30T00:30:24.973Z,3.57
2017-12-30T00:32:52.957Z,4.80
2017-12-30T00:35:20.416Z,4.83
2017-12-30T00:37:47.872Z,3.63
2017-12-30T00:40:15.658Z,4.07
2017-12-30T00:42:43.111Z,4.80
2017-12-30T00:45:10.560Z,3.73
2017-12-30T00:47:38.291Z,4.53
2017-12-30T00:50:05.743Z,6.13
2017-12-30T00:52:33.194Z,5.40
2017-12-30T00:55:01.033Z,4.80
2017-12-30T00:57:28.476Z,5.20
2017-12-30T00:59:55.936Z,4.33
2017-12-30T01:02:24.962Z,4.67
2017-12-30T01:04:52.424Z,5.00
2017-12-30T01:07:19.882Z,4.17
2017-12-30T01:09:47.648Z,5.13
2017-12-30T01:12:15.106Z,4.50
2017-12-30T01:14:42.570Z,5.13
2017-12-30T01:17:10.332Z,4.43
2017-12-30T01:19:37.781Z,4.47
2017-12-30T01:22:05.222Z,4.83
2017-12-30T01:24:33.022Z,5.17
2017-12-30T01:27:00.476Z,4.50
2017-12-30T01:29:27.976Z,4.35
2017-12-30T01:31:55.697Z,4.80
2017-12-30T01:34:23.160Z,4.25
2017-12-30T01:36:50.633Z,4.25
2017-12-30T01:39:18.692Z,4.05
2017-12-30T01:41:46.152Z,5.10
2017-12-30T01:44:13.612Z,4.87
2017-12-30T01:46:42.000Z,4.57
2017-12-30T01:49:09.469Z,4.50
2017-12-30T01:51:36.919Z,4.43
2017-12-30T01:54:04.678Z,5.03
2017-12-30T01:56:32.142Z,3.75
2017-12-30T01:58:59.594Z,4.97
2017-12-30T02:01:27.372Z,5.07
2017-12-30T02:03:55.571Z,5.55
2017-12-30T02:06:23.033Z,5.03
2017-12-30T02:08:50.820Z,6.62
2017-12-30T02:11:18.287Z,6.32
2017-12-30T02:13:46.153Z,7.28
2017-12-30T02:16:14.018Z,6.53
2017-12-30T02:18:41.483Z,6.23
2017-12-30T02:21:08.943Z,7.35
2017-12-30T02:23:36.980Z,7.82
2017-12-30T02:26:04.424Z,7.13
2017-12-30T02:28:31.886Z,7.28
2017-12-30T02:30:59.646Z,7.13
2017-12-30T02:33:27.114Z,9.00
2017-12-30T02:35:54.582Z,8.70
2017-12-30T02:38:22.640Z,9.33
2017-12-30T02:40:50.107Z,9.70
2017-12-30T02:43:17.560Z,9.60
2017-12-30T02:45:45.646Z,7.93
2017-12-30T02:48:13.107Z,9.83
2017-12-30T02:50:40.573Z,9.77
2017-12-30T02:53:08.331Z,8.03
2017-12-30T02:55:35.798Z,9.85
2017-12-30T02:58:03.272Z,9.50
2017-12-30T03:00:31.012Z,9.53
2017-12-30T03:02:58.473Z,8.80
2017-12-30T03:05:26.620Z,9.32
2017-12-30T03:07:54.316Z,9.02
2017-12-30T03:10:21.781Z,8.67
2017-12-30T03:12:49.232Z,8.50
2017-12-30T03:15:17.010Z,9.00
2017-12-30T03:17:44.472Z,10.77
2017-12-30T03:20:11.931Z,12.20
2017-12-30T03:22:39.695Z,9.90
2017-12-30T03:25:07.154Z,9.70
2017-12-30T03:27:34.634Z,8.38
2017-12-30T03:30:02.369Z,9.90
2017-12-30T03:32:29.833Z,11.48
2017-12-30T03:34:57.296Z,13.60
2017-12-30T03:37:25.060Z,12.13
2017-12-30T03:39:52.530Z,12.45
2017-12-30T03:42:20.061Z,11.30
2017-12-30T03:44:48.057Z,12.20
2017-12-30T03:47:15.520Z,10.50
2017-12-30T03:49:42.993Z,12.30
2017-12-30T03:52:10.732Z,11.88
2017-12-30T03:54:38.203Z,12.43
2017-12-30T03:57:05.760Z,16.25
2017-12-30T03:59:33.480Z,16.20
2017-12-30T04:02:00.953Z,14.65
2017-12-30T04:04:28.436Z,13.80
2017-12-30T04:06:56.737Z,16.27
2017-12-30T04:09:24.200Z,15.20
2017-12-30T04:11:51.659Z,16.27
2017-12-30T04:14:19.421Z,12.77
2017-12-30T04:16:46.882Z,11.40
2017-12-30T04:19:14.341Z,9.93
2017-12-30T04:21:42.377Z,10.60
2017-12-30T04:24:09.840Z,11.97
2017-12-30T04:26:37.289Z,9.90
2017-12-30T04:29:05.377Z,10.50
2017-12-30T04:31:32.850Z,10.93
2017-12-30T04:34:00.316Z,11.60
2017-12-30T04:36:28.241Z,12.97
2017-12-30T04:38:55.706Z,12.10
2017-12-30T04:41:23.166Z,14.43
2017-12-30T04:43:51.088Z,14.37
2017-12-30T04:46:18.542Z,14.20
2017-12-30T04:48:45.997Z,14.80
2017-12-30T04:51:13.775Z,15.50
2017-12-30T04:53:41.240Z,15.13
2017-12-30T04:56:08.706Z,15.60
2017-12-30T04:58:36.470Z,15.07
2017-12-30T05:01:03.924Z,14.37
2017-12-30T05:03:31.688Z,14.20
2017-12-30T05:05:59.464Z,14.23
2017-12-30T05:08:28.441Z,13.68
2017-12-30T05:10:55.902Z,14.47
2017-12-30T05:13:23.581Z,13.20
2017-12-30T05:15:51.046Z,13.13
2017-12-30T05:18:18.508Z,13.10
2017-12-30T05:20:46.368Z,12.80
2017-12-30T05:23:13.832Z,13.40
2017-12-30T05:25:41.306Z,13.00
2017-12-30T05:28:09.049Z,13.87
2017-12-30T05:30:36.497Z,13.03
2017-12-30T05:33:03.951Z,11.57
2017-12-30T05:35:31.746Z,12.43
2017-12-30T05:37:59.208Z,11.00
2017-12-30T05:40:26.664Z,10.30
2017-12-30T05:42:54.741Z,10.70
2017-12-30T05:45:22.482Z,10.43
2017-12-30T05:47:49.933Z,9.93
2017-12-30T05:50:17.728Z,10.97
2017-12-30T05:52:45.176Z,8.77
2017-12-30T05:55:12.616Z,7.77
2017-12-30T05:57:40.242Z,9.13
2017-12-30T06:00:07.704Z,9.10
2017-12-30T06:02:35.156Z,7.80
2017-12-30T06:05:03.108Z,8.67
2017-12-30T06:07:30.564Z,6.93
2017-12-30T06:09:58.512Z,9.07
2017-12-30T06:12:26.405Z,8.87
2017-12-30T06:14:53.863Z,8.67
2017-12-30T06:17:21.310Z,8.43
2017-12-30T06:19:49.094Z,8.40
2017-12-30T06:22:16.557Z,7.80
2017-12-30T06:24:44.012Z,9.50
2017-12-30T06:27:11.787Z,10.53
2017-12-30T06:29:39.249Z,10.00
2017-12-30T06:32:06.717Z,10.63
2017-12-30T06:34:34.485Z,11.73
2017-12-30T06:37:01.936Z,12.40
2017-12-30T06:39:29.403Z,11.40
2017-12-30T06:41:57.153Z,12.82
2017-12-30T06:44:24.684Z,13.27
2017-12-30T06:46:52.143Z,12.20
2017-12-30T06:49:19.841Z,14.10
2017-12-30T06:51:47.306Z,13.20
2017-12-30T06:54:14.768Z,16.63
2017-12-30T06:56:42.532Z,14.83
2017-12-30T06:59:09.987Z,17.57
2017-12-30T07:01:37.451Z,13.57
2017-12-30T07:04:05.229Z,14.47
2017-12-30T07:06:32.692Z,15.27
2017-12-30T07:09:00.152Z,14.20
2017-12-30T07:11:29.142Z,13.50
2017-12-30T07:13:56.603Z,14.33
2017-12-30T07:16:24.057Z,15.90
2017-12-30T07:18:51.818Z,14.30
2017-12-30T07:21:19.281Z,14.73
2017-12-30T07:23:46.740Z,15.20
2017-12-30T07:26:14.476Z,14.80
2017-12-30T07:28:41.929Z,15.60
2017-12-30T07:31:09.380Z,14.63
2017-12-30T07:33:37.199Z,14.50
2017-12-30T07:36:04.657Z,14.60
2017-12-30T07:38:32.120Z,14.70
2017-12-30T07:40:59.984Z,15.80
2017-12-30T07:43:27.440Z,15.87
2017-12-30T07:45:54.899Z,15.87
2017-12-30T07:48:22.600Z,18.50
2017-12-30T07:50:50.056Z,18.53
2017-12-30T07:53:17.508Z,18.77
2017-12-30T07:55:45.258Z,22.10
2017-12-30T07:58:12.721Z,20.23
2017-12-30T08:00:40.185Z,27.30
2017-12-30T08:03:08.204Z,28.57
2017-12-30T08:05:35.668Z,29.53
2017-12-30T08:08:03.121Z,35.67
2017-12-30T08:10:30.932Z,42.27
2017-12-30T08:12:59.308Z,33.40
2017-12-30T08:15:26.760Z,29.80
2017-12-30T08:17:54.545Z,30.07
2017-12-30T08:20:22.013Z,31.17
2017-12-30T08:22:49.484Z,30.40
2017-12-30T08:25:17.542Z,30.80
2017-12-30T08:27:45.005Z,29.57
2017-12-30T08:30:12.504Z,30.33
2017-12-30T08:32:40.220Z,31.27
2017-12-30T08:35:07.673Z,28.60
2017-12-30T08:37:35.129Z,29.90
2017-12-30T08:40:02.899Z,27.83
2017-12-30T08:42:30.357Z,27.20
2017-12-30T08:44:57.827Z,27.27
2017-12-30T08:47:25.597Z,26.30
2017-12-30T08:49:53.049Z,27.93
2017-12-30T08:52:20.500Z,25.73
2017-12-30T08:54:48.307Z,24.20
2017-12-30T08:57:15.773Z,24.90
2017-12-30T08:59:43.235Z,25.47
2017-12-30T09:02:10.984Z,27.53
2017-12-30T09:04:38.440Z,27.27
2017-12-30T09:07:05.895Z,31.20
2017-12-30T09:09:33.969Z,32.80
2017-12-30T09:12:01.435Z,29.40
2017-12-30T09:14:29.261Z,30.50
2017-12-30T09:16:57.573Z,26.87
2017-12-30T09:19:25.055Z,29.90
2017-12-30T09:21:52.525Z,32.10
2017-12-30T09:24:20.584Z,25.37
2017-12-30T09:26:48.042Z,26.03
2017-12-30T09:29:15.497Z,28.10
2017-12-30T09:31:43.248Z,31.30
2017-12-30T09:34:10.700Z,30.90
2017-12-30T09:36:38.148Z,29.97
2017-12-30T09:39:05.929Z,31.43
2017-12-30T09:41:33.386Z,31.77
2017-12-30T09:44:00.851Z,28.20
2017-12-30T09:46:28.623Z,25.90
2017-12-30T09:48:56.272Z,24.03
2017-12-30T09:51:23.729Z,23.00
2017-12-30T09:53:51.621Z,21.60
2017-12-30T09:56:19.077Z,19.87
2017-12-30T09:58:46.536Z,19.73
2017-12-30T10:01:14.314Z,19.20
2017-12-30T10:03:41.765Z,20.30
2017-12-30T10:06:09.229Z,20.37
2017-12-30T10:08:36.992Z,20.67
2017-12-30T10:11:04.450Z,21.17
2017-12-30T10:13:31.905Z,22.90
2017-12-30T10:15:59.992Z,19.77
2017-12-30T10:18:27.456Z,20.00
2017-12-30T10:20:54.921Z,20.17
2017-12-30T10:23:22.994Z,20.67
2017-12-30T10:25:50.462Z,20.97
2017-12-30T10:28:17.916Z,21.17
2017-12-30T10:30:45.990Z,22.03
2017-12-30T10:33:13.453Z,23.67
2017-12-30T10:35:40.907Z,22.63
2017-12-30T10:38:08.695Z,24.60
2017-12-30T10:40:36.145Z,21.70
2017-12-30T10:43:03.596Z,20.33
2017-12-30T10:45:31.348Z,22.53
2017-12-30T10:47:58.815Z,19.60
2017-12-30T10:50:26.283Z,20.83
2017-12-30T10:52:54.040Z,19.90
2017-12-30T10:55:21.497Z,20.97
2017-12-30T10:57:48.958Z,20.07
2017-12-30T11:00:17.340Z,21.30
2017-12-30T11:02:44.793Z,21.53
2017-12-30T11:05:12.310Z,22.60
2017-12-30T11:07:40.378Z,21.33
2017-12-30T11:10:07.844Z,22.87
2017-12-30T11:12:35.305Z,23.63
2017-12-30T11:15:03.021Z,23.83
2017-12-30T11:17:31.177Z,22.40
2017-12-30T11:19:58.636Z,22.13
2017-12-30T11:22:26.328Z,21.80
2017-12-30T11:24:53.778Z,21.37
2017-12-30T11:27:21.240Z,21.23
2017-12-30T11:29:49.319Z,19.17
2017-12-30T11:32:16.784Z,18.77
2017-12-30T11:34:44.251Z,17.93
2017-12-30T11:37:12.315Z,15.13
2017-12-30T11:39:39.776Z,17.63
2017-12-30T11:42:07.240Z,17.40
2017-12-30T11:44:34.993Z,18.63
2017-12-30T11:47:02.444Z,19.27
2017-12-30T11:49:29.906Z,17.40
2017-12-30T11:51:57.685Z,20.20
2017-12-30T11:54:25.142Z,20.30
2017-12-30T11:56:52.620Z,30.90
2017-12-30T11:59:20.371Z,38.00
2017-12-30T12:01:47.836Z,47.07
2017-12-30T12:04:15.290Z,52.17
2017-12-30T12:06:43.373Z,48.87
2017-12-30T12:09:10.834Z,53.93
2017-12-30T12:11:38.293Z,61.17
2017-12-30T12:14:06.061Z,66.10
2017-12-30T12:16:33.522Z,67.67
2017-12-30T12:19:01.661Z,68.77
2017-12-30T12:21:29.364Z,69.03
2017-12-30T12:23:56.874Z,67.63
2017-12-30T12:26:24.324Z,57.60
2017-12-30T12:28:52.044Z,58.93
2017-12-30T12:31:19.501Z,55.20
2017-12-30T12:33:46.952Z,56.40
2017-12-30T12:36:14.738Z,50.70
2017-12-30T12:38:42.202Z,43.60
2017-12-30T12:41:09.665Z,42.13
2017-12-30T12:43:37.389Z,38.50
2017-12-30T12:46:04.840Z,35.23
2017-12-30T12:48:32.288Z,35.13
2017-12-30T12:51:00.101Z,33.37
2017-12-30T12:53:27.555Z,31.07
2017-12-30T12:55:55.014Z,26.97
2017-12-30T12:58:22.789Z,23.27
2017-12-30T13:00:50.244Z,20.30
2017-12-30T13:03:17.701Z,18.70
2017-12-30T13:05:45.280Z,18.13
2017-12-30T13:08:12.731Z,18.80
2017-12-30T13:10:40.190Z,16.20
2017-12-30T13:13:08.164Z,18.57
2017-12-30T13:15:35.672Z,15.73
2017-12-30T13:18:03.135Z,15.03
2017-12-30T13:20:31.456Z,14.80
2017-12-30T13:22:58.937Z,15.10
2017-12-30T13:25:26.393Z,16.60
2017-12-30T13:27:54.151Z,13.57
2017-12-30T13:30:21.605Z,10.37
2017-12-30T13:32:49.068Z,11.90
2017-12-30T13:35:16.837Z,13.50
2017-12-30T13:37:44.288Z,12.27
2017-12-30T13:40:11.740Z,14.67
2017-12-30T13:42:39.533Z,12.47
2017-12-30T13:45:06.992Z,15.60
2017-12-30T13:47:34.457Z,14.27
2017-12-30T13:50:02.228Z,14.70
2017-12-30T13:52:29.703Z,14.80
2017-12-30T13:54:57.156Z,15.07
2017-12-30T13:57:25.210Z,15.23
2017-12-30T13:59:52.686Z,14.17
2017-12-30T14:02:20.145Z,15.80
2017-12-30T14:04:47.863Z,15.00
2017-12-30T14:07:15.311Z,13.37
2017-12-30T14:09:42.759Z,14.63
2017-12-30T14:12:10.590Z,15.13
2017-12-30T14:14:38.045Z,15.77
2017-12-30T14:17:05.505Z,17.20
2017-12-30T14:19:33.267Z,15.40
2017-12-30T14:22:01.165Z,17.20
2017-12-30T14:24:28.628Z,17.90
2017-12-30T14:26:56.580Z,17.30
2017-12-30T14:29:24.040Z,17.73
2017-12-30T14:31:51.496Z,18.40
2017-12-30T14:34:19.333Z,19.10
2017-12-30T14:36:46.786Z,31.53
2017-12-30T14:39:14.246Z,31.00
2017-12-30T14:41:41.943Z,36.10
2017-12-30T14:44:09.403Z,31.10
2017-12-30T14:46:36.857Z,25.70
2017-12-30T14:49:04.680Z,28.17
2017-12-30T14:51:32.146Z,25.93
2017-12-30T14:53:59.600Z,26.73
2017-12-30T14:56:27.313Z,32.20
2017-12-30T14:58:54.764Z,31.40
2017-12-30T15:01:22.245Z,31.23
2017-12-30T15:03:49.950Z,39.30
2017-12-30T15:06:17.413Z,41.37
2017-12-30T15:08:44.870Z,44.00
2017-12-30T15:11:12.693Z,45.37
2017-12-30T15:13:40.149Z,45.97
2017-12-30T15:16:07.606Z,45.50
2017-12-30T15:18:35.381Z,44.47
2017-12-30T15:21:02.849Z,43.33
2017-12-30T15:23:30.871Z,40.67
2017-12-30T15:25:58.684Z,43.20
2017-12-30T15:28:26.149Z,41.57
2017-12-30T15:30:53.604Z,41.83
2017-12-30T15:33:21.518Z,47.80
2017-12-30T15:35:48.980Z,45.80
2017-12-30T15:38:16.438Z,48.73
2017-12-30T15:40:44.056Z,45.80
2017-12-30T15:43:11.520Z,40.33
2017-12-30T15:45:38.977Z,41.77
2017-12-30T15:48:06.748Z,42.13
2017-12-30T15:50:34.211Z,42.50
2017-12-30T15:53:01.672Z,45.83
2017-12-30T15:55:29.422Z,44.97
2017-12-30T15:57:56.875Z,42.50
2017-12-30T16:00:24.347Z,45.90
2017-12-30T16:02:52.085Z,43.03
2017-12-30T16:05:19.540Z,46.03
2017-12-30T16:07:46.993Z,48.50
2017-12-30T16:10:14.801Z,45.60
2017-12-30T16:12:42.247Z,45.47
2017-12-30T16:15:09.705Z,45.00
2017-12-30T16:17:37.797Z,48.80
2017-12-30T16:20:05.260Z,51.50
2017-12-30T16:22:32.792Z,51.53
2017-12-30T16:25:02.637Z,49.60
2017-12-30T16:27:30.097Z,54.17
2017-12-30T16:29:57.551Z,53.13
2017-12-30T16:32:25.328Z,46.57
2017-12-30T16:34:52.794Z,47.00
2017-12-30T16:37:20.260Z,50.97
2017-12-30T16:39:48.013Z,53.60
2017-12-30T16:42:15.477Z,51.90
2017-12-30T16:44:42.931Z,55.70
2017-12-30T16:47:10.691Z,53.17
2017-12-30T16:49:38.156Z,62.00
2017-12-30T16:52:05.613Z,58.57
2017-12-30T16:54:33.392Z,57.83
2017-12-30T16:57:00.860Z,66.87
2017-12-30T16:59:28.317Z,60.13
2017-12-30T17:01:56.081Z,57.30
2017-12-30T17:04:23.540Z,55.30
2017-12-30T17:06:51.005Z,54.13
2017-12-30T17:09:18.759Z,80.13
2017-12-30T17:11:46.216Z,58.03
2017-12-30T17:14:13.684Z,60.37
2017-12-30T17:16:41.333Z,55.63
2017-12-30T17:19:08.794Z,52.73
2017-12-30T17:21:36.252Z,59.60
2017-12-30T17:24:04.130Z,49.47
2017-12-30T17:26:32.901Z,47.67
2017-12-30T17:29:00.364Z,43.37
2017-12-30T17:31:28.040Z,42.03
2017-12-30T17:33:55.489Z,39.47
2017-12-30T17:36:22.948Z,37.87
2017-12-30T17:38:50.729Z,33.60
2017-12-30T17:41:18.193Z,30.57
2017-12-30T17:43:45.644Z,35.40
2017-12-30T17:46:13.428Z,32.90
2017-12-30T17:48:40.889Z,34.57
2017-12-30T17:51:08.346Z,34.80
2017-12-30T17:53:36.113Z,54.37
2017-12-30T17:56:03.557Z,39.43
2017-12-30T17:58:31.008Z,34.17
2017-12-30T18:00:58.800Z,34.97
2017-12-30T18:03:26.274Z,37.37
2017-12-30T18:05:53.723Z,32.27
2017-12-30T18:08:22.326Z,32.03
2017-12-30T18:10:49.784Z,34.80
2017-12-30T18:13:17.241Z,32.60
2017-12-30T18:15:45.149Z,35.03
2017-12-30T18:18:12.566Z,32.07
2017-12-30T18:20:40.018Z,30.30
2017-12-30T18:23:07.795Z,33.00
2017-12-30T18:25:35.253Z,30.63
2017-12-30T18:28:03.396Z,35.07
2017-12-30T18:30:31.000Z,31.77
2017-12-30T18:32:58.464Z,32.90
2017-12-30T18:35:25.929Z,43.53
2017-12-30T18:37:53.768Z,35.33
2017-12-30T18:40:21.228Z,37.40
2017-12-30T18:42:48.681Z,41.93
2017-12-30T18:45:16.505Z,38.97
2017-12-30T18:47:43.961Z,37.80
2017-12-30T18:50:11.424Z,34.77
2017-12-30T18:52:39.133Z,30.73
2017-12-30T18:55:06.599Z,37.13
2017-12-30T18:57:34.060Z,44.47
2017-12-30T19:00:01.832Z,49.67
2017-12-30T19:02:29.296Z,45.40
2017-12-30T19:04:56.748Z,63.13
2017-12-30T19:07:24.516Z,49.60
2017-12-30T19:09:51.972Z,43.83
2017-12-30T19:12:19.448Z,53.23
2017-12-30T19:14:47.211Z,48.50
2017-12-30T19:17:14.664Z,39.50
2017-12-30T19:19:42.129Z,36.27
2017-12-30T19:22:09.796Z,39.00
2017-12-30T19:24:37.259Z,39.20
2017-12-30T19:27:04.722Z,41.03
2017-12-30T19:29:33.492Z,40.10
2017-12-30T19:32:00.950Z,41.33
2017-12-30T19:34:28.406Z,50.30
2017-12-30T19:36:56.089Z,41.17
2017-12-30T19:39:23.557Z,37.97
2017-12-30T19:41:51.012Z,41.47
2017-12-30T19:44:18.869Z,41.20
2017-12-30T19:46:46.321Z,44.97
2017-12-30T19:49:13.773Z,46.30
2017-12-30T19:51:41.562Z,44.97
2017-12-30T19:54:09.053Z,49.77
2017-12-30T19:56:36.522Z,43.60
2017-12-30T19:59:04.249Z,44.67
2017-12-30T20:01:31.704Z,46.87
2017-12-30T20:03:59.173Z,56.70
2017-12-30T20:06:27.240Z,45.23
2017-12-30T20:08:54.705Z,43.07
2017-12-30T20:11:22.172Z,41.97
2017-12-30T20:13:50.233Z,45.67
2017-12-30T20:16:18.304Z,41.50
2017-12-30T20:18:45.769Z,42.77
2017-12-30T20:21:13.226Z,42.83
2017-12-30T20:23:41.305Z,43.90
2017-12-30T20:26:08.772Z,43.73
2017-12-30T20:28:36.241Z,40.60
2017-12-30T20:31:03.994Z,39.10
2017-12-30T20:33:31.456Z,41.80
2017-12-30T20:35:58.921Z,40.47
2017-12-30T20:38:26.831Z,36.80
2017-12-30T20:40:54.292Z,38.70
2017-12-30T20:43:21.744Z,37.43
2017-12-30T20:45:49.662Z,37.27
2017-12-30T20:48:17.121Z,40.40
2017-12-30T20:50:44.636Z,40.50
2017-12-30T20:53:12.404Z,44.37
2017-12-30T20:55:39.868Z,43.77
2017-12-30T20:58:07.328Z,41.90
2017-12-30T21:00:35.054Z,36.60
2017-12-30T21:03:02.516Z,35.40
2017-12-30T21:05:29.978Z,35.83
2017-12-30T21:07:57.733Z,36.17
2017-12-30T21:10:25.193Z,33.47
2017-12-30T21:12:52.665Z,37.03
2017-12-30T21:15:20.414Z,36.30
2017-12-30T21:17:48.264Z,41.80
2017-12-30T21:20:15.728Z,44.70
2017-12-30T21:22:43.385Z,42.70
2017-12-30T21:25:10.843Z,38.83
2017-12-30T21:27:38.312Z,37.90
2017-12-30T21:30:06.111Z,38.17
2017-12-30T21:32:33.572Z,35.50
2017-12-30T21:35:01.026Z,39.33
2017-12-30T21:37:28.661Z,42.77
2017-12-30T21:39:56.116Z,40.00
2017-12-30T21:42:23.576Z,37.87
2017-12-30T21:44:51.477Z,40.33
2017-12-30T21:47:18.937Z,41.00
2017-12-30T21:49:46.397Z,42.70
2017-12-30T21:52:14.152Z,45.67
2017-12-30T21:54:41.609Z,44.60
2017-12-30T21:57:09.060Z,44.70
2017-12-30T21:59:36.841Z,43.23
2017-12-30T22:02:04.298Z,43.63
2017-12-30T22:04:31.758Z,45.37
2017-12-30T22:07:00.766Z,44.77
2017-12-30T22:09:28.227Z,52.00
2017-12-30T22:11:55.681Z,48.77
2017-12-30T22:14:23.457Z,48.17
2017-12-30T22:16:50.915Z,49.50
2017-12-30T22:19:19.679Z,47.40
2017-12-30T22:21:47.360Z,47.50
2017-12-30T22:24:14.805Z,45.07
2017-12-30T22:26:42.260Z,44.07
2017-12-30T22:29:10.065Z,43.10
2017-12-30T22:31:37.518Z,40.77
2017-12-30T22:34:04.971Z,44.70
2017-12-30T22:36:32.737Z,46.43
2017-12-30T22:39:00.190Z,44.83
2017-12-30T22:41:27.647Z,46.10
2017-12-30T22:43:55.736Z,45.13
2017-12-30T22:46:23.204Z,41.30
2017-12-30T22:48:50.662Z,43.20
2017-12-30T22:51:18.421Z,44.10
2017-12-30T22:53:45.876Z,42.73
2017-12-30T22:56:13.338Z,37.80
2017-12-30T22:58:41.101Z,44.20
2017-12-30T23:01:08.554Z,38.87
2017-12-30T23:03:36.018Z,40.93
2017-12-30T23:06:03.789Z,39.20
2017-12-30T23:08:31.243Z,40.17
2017-12-30T23:10:58.700Z,40.37
2017-12-30T23:13:26.792Z,41.43
2017-12-30T23:15:54.265Z,39.33
2017-12-30T23:18:21.719Z,40.17
2017-12-30T23:20:49.812Z,35.70
2017-12-30T23:23:17.264Z,38.77
2017-12-30T23:25:44.729Z,41.30
2017-12-30T23:28:12.464Z,39.40
2017-12-30T23:30:39.912Z,39.37
2017-12-30T23:33:07.364Z,39.40
2017-12-30T23:35:35.159Z,41.90
2017-12-30T23:38:02.621Z,45.00
2017-12-30T23:40:30.080Z,46.10
2017-12-30T23:42:57.833Z,44.77
2017-12-30T23:45:25.293Z,47.20
2017-12-30T23:47:52.737Z,47.37
2017-12-30T23:50:20.446Z,49.87
2017-12-30T23:52:47.909Z,42.63
2017-12-30T23:55:15.360Z,42.17
2017-12-30T23:57:43.208Z,42.07
